13.32C
переменная облачность
переменная облачность
Дата и времяТемператураДавление, мм рт.ст.Влажность, %Осадки
МинимумМаксимум
21.05.2024 14:0017.23C18.38C75544переменная облачность
21.05.2024 17:0017.93C18.57C75340переменная облачность
21.05.2024 20:0015.65C15.65C75047небольшая облачность
21.05.2024 23:0012.24C12.24C74953небольшая облачность
22.05.2024 02:006.26C6.26C75084небольшой дождь
22.05.2024 05:002.91C2.91C75179небольшой дождь
22.05.2024 08:001.82C1.82C75383пасмурно
22.05.2024 11:002.56C2.56C75574небольшой снег
22.05.2024 14:005.53C5.53C75641пасмурно
22.05.2024 17:006.3C6.3C75732облачно с прояснениями
22.05.2024 20:005.15C5.15C75837ясно
22.05.2024 23:003.12C3.12C75751облачно с прояснениями
23.05.2024 02:000.1C0.1C75687небольшой снег
23.05.2024 05:00-0.48C-0.48C75683пасмурно
23.05.2024 08:001.54C1.54C75679небольшой снег
23.05.2024 11:002.64C2.64C75956небольшой снег
23.05.2024 14:004.49C4.49C76140небольшой снег
23.05.2024 17:004.7C4.7C76235небольшой снег
23.05.2024 20:003.23C3.23C76243пасмурно
23.05.2024 23:000.33C0.33C76261облачно с прояснениями
24.05.2024 02:00-0.29C-0.29C76265небольшая облачность
24.05.2024 05:000.88C0.88C76261небольшая облачность
24.05.2024 08:003.31C3.31C76246небольшая облачность
24.05.2024 11:004.48C4.48C76240небольшой снег
24.05.2024 14:005.34C5.34C76233пасмурно
24.05.2024 17:004.31C4.31C76344небольшой снег
24.05.2024 20:003.17C3.17C76349пасмурно
24.05.2024 23:001.16C1.16C76459пасмурно
25.05.2024 02:000.04C0.04C76459облачно с прояснениями
25.05.2024 05:000.95C0.95C76454переменная облачность
25.05.2024 08:003.6C3.6C76238ясно
25.05.2024 11:005.53C5.53C76134небольшая облачность
25.05.2024 14:007.78C7.78C75832пасмурно
25.05.2024 17:007.55C7.55C75547пасмурно
25.05.2024 20:002.44C2.44C75396снег
25.05.2024 23:002.46C2.46C75196небольшой дождь
26.05.2024 02:002.49C2.49C75098небольшой дождь
26.05.2024 05:002.82C2.82C75082снег
26.05.2024 08:005.07C5.07C75063ясно
26.05.2024 11:005.18C5.18C75255переменная облачность
Дата и время наблюдения: 21.05.2024 10:16:53